Time;durP1;ratioP1;P1;durP2;ratioP2;P2;SDS_P1;SDS_P2;PMS_P1;PMS_P2;Temp;Humidity;BMP_temperature;BMP_pressure;BME280_temperature;BME280_humidity;BME280_pressure;Samples;Min_cycle;Max_cycle;Signal;HPM_P1;HPM_P2
2022/06/28 00:01:54;;;;;;;3.55;3.45;;;;;;;;;;5053470;28;20726;-70
2022/06/28 00:04:41;;;;;;;3.60;3.40;;;;;;;;;;5058050;28;20701;-70
2022/06/28 00:07:29;;;;;;;3.40;3.28;;;;;;;;;;5055056;28;20249;-70
2022/06/28 00:10:17;;;;;;;3.33;3.22;;;;;;;;;;5057947;28;20586;-71
2022/06/28 00:13:04;;;;;;;3.67;3.47;;;;;;;;;;5055464;28;20606;-70
2022/06/28 00:16:06;;;;;;;3.58;3.38;;;;;;;;;;5056140;28;20662;-70
2022/06/28 00:18:53;;;;;;;3.63;3.42;;;;;;;;;;5062649;28;20299;-70
2022/06/28 00:21:40;;;;;;;3.70;3.50;;;;;;;;;;5057992;28;20310;-70
2022/06/28 00:24:27;;;;;;;3.83;3.63;;;;;;;;;;5056656;28;20285;-70
2022/06/28 00:27:15;;;;;;;3.80;3.60;;;;;;;;;;5053674;28;20208;-70
2022/06/28 00:30:02;;;;;;;3.90;3.60;;;;;;;;;;5058967;28;20215;-70
2022/06/28 00:32:49;;;;;;;3.90;3.70;;;;;;;;;;5056456;28;20208;-71
2022/06/28 00:35:36;;;;;;;3.65;3.45;;;;;;;;;;5063242;28;20252;-70
2022/06/28 00:38:23;;;;;;;3.42;3.28;;;;;;;;;;5057475;28;20575;-70
2022/06/28 00:41:10;;;;;;;3.60;3.33;;;;;;;;;;5059469;28;20207;-70
2022/06/28 00:44:00;;;;;;;3.53;3.35;;;;;;;;;;5060097;28;20239;-70
2022/06/28 00:46:48;;;;;;;3.63;3.42;;;;;;;;;;5059555;28;20216;-70
2022/06/28 00:49:39;;;;;;;3.35;3.25;;;;;;;;;;5063020;28;20735;-70
2022/06/28 00:52:27;;;;;;;3.90;3.70;;;;;;;;;;5062268;28;20211;-70
2022/06/28 00:55:14;;;;;;;3.80;3.60;;;;;;;;;;5061181;28;20208;-70
2022/06/28 00:58:01;;;;;;;3.90;3.70;;;;;;;;;;5065737;28;20203;-70
2022/06/28 01:00:50;;;;;;;3.50;3.30;;;;;;;;;;5059232;28;20203;-70
2022/06/28 01:03:37;;;;;;;3.42;3.22;;;;;;;;;;5064339;28;20344;-71
2022/06/28 01:06:24;;;;;;;3.80;3.60;;;;;;;;;;5060132;28;20276;-70
2022/06/28 01:09:12;;;;;;;3.70;3.50;;;;;;;;;;5061350;28;20216;-69
2022/06/28 01:11:59;;;;;;;3.65;3.50;;;;;;;;;;5054504;28;20203;-70
2022/06/28 01:14:46;;;;;;;3.42;3.22;;;;;;;;;;5060257;28;20222;-70
2022/06/28 01:17:34;;;;;;;3.40;3.30;;;;;;;;;;5061929;28;20218;-70
2022/06/28 01:20:22;;;;;;;3.60;3.40;;;;;;;;;;5059536;28;20210;-70
2022/06/28 01:23:10;;;;;;;3.83;3.63;;;;;;;;;;5065648;28;20557;-70
2022/06/28 01:25:57;;;;;;;3.47;3.28;;;;;;;;;;5065953;28;20243;-70
2022/06/28 01:28:45;;;;;;;3.30;3.20;;;;;;;;;;5061103;28;20210;-70
2022/06/28 01:31:32;;;;;;;3.38;3.20;;;;;;;;;;5066054;28;20679;-70
2022/06/28 01:34:21;;;;;;;3.55;3.35;;;;;;;;;;5063862;28;20204;-70
2022/06/28 01:37:09;;;;;;;3.75;3.53;;;;;;;;;;5058627;28;20690;-70
2022/06/28 01:39:58;;;;;;;3.13;3.03;;;;;;;;;;5055984;28;20256;-70
2022/06/28 01:42:45;;;;;;;3.60;3.40;;;;;;;;;;5057913;28;20284;-70
2022/06/28 01:45:32;;;;;;;3.08;2.97;;;;;;;;;;5059802;28;20659;-70
2022/06/28 01:48:20;;;;;;;3.20;3.00;;;;;;;;;;5059031;28;20203;-69
2022/06/28 01:51:07;;;;;;;3.30;3.17;;;;;;;;;;5058563;28;20210;-70
2022/06/28 01:53:53;;;;;;;3.33;3.20;;;;;;;;;;5062257;28;20258;-69
2022/06/28 01:56:43;;;;;;;3.20;3.10;;;;;;;;;;5063613;28;20668;-70
2022/06/28 01:59:30;;;;;;;2.95;2.75;;;;;;;;;;5061712;28;20207;-70
2022/06/28 02:02:17;;;;;;;3.13;2.92;;;;;;;;;;5065406;28;20226;-70
2022/06/28 02:05:04;;;;;;;2.90;2.80;;;;;;;;;;5065895;28;20220;-70
2022/06/28 02:07:52;;;;;;;2.83;2.72;;;;;;;;;;5060861;28;20253;-71
2022/06/28 02:10:39;;;;;;;2.83;2.72;;;;;;;;;;5058580;28;20223;-71
2022/06/28 02:13:27;;;;;;;2.92;2.83;;;;;;;;;;5062493;28;20731;-70
2022/06/28 02:16:14;;;;;;;2.90;2.80;;;;;;;;;;5067034;28;20195;-69
2022/06/28 02:19:01;;;;;;;2.90;2.80;;;;;;;;;;5057215;28;20284;-70
2022/06/28 02:21:48;;;;;;;2.65;2.50;;;;;;;;;;5061902;28;20725;-69
2022/06/28 02:24:35;;;;;;;2.92;2.83;;;;;;;;;;5054422;28;20219;-70
2022/06/28 02:27:23;;;;;;;2.75;2.65;;;;;;;;;;5061662;28;20282;-70
2022/06/28 02:30:13;;;;;;;2.70;2.60;;;;;;;;;;5066390;28;20207;-70
2022/06/28 02:32:59;;;;;;;2.60;2.50;;;;;;;;;;5060820;28;20744;-70
2022/06/28 02:41:55;;;;;;;2.50;2.40;;;;;;;;;;5057069;28;20226;-70
2022/06/28 02:44:42;;;;;;;2.70;2.60;;;;;;;;;;5065382;28;20838;-70
2022/06/28 02:47:31;;;;;;;2.63;2.50;;;;;;;;;;5058805;28;20211;-69
2022/06/28 02:50:18;;;;;;;2.50;2.40;;;;;;;;;;5061109;28;20208;-70
2022/06/28 02:53:05;;;;;;;2.25;2.15;;;;;;;;;;5057684;28;20656;-70
2022/06/28 02:55:52;;;;;;;1.90;1.90;;;;;;;;;;5055314;28;20686;-70
2022/06/28 02:58:39;;;;;;;2.20;2.10;;;;;;;;;;5058199;28;20291;-70
2022/06/28 03:01:26;;;;;;;2.10;2.10;;;;;;;;;;5057674;28;20220;-70
2022/06/28 03:04:15;;;;;;;2.40;2.30;;;;;;;;;;5057700;28;20564;-70
2022/06/28 03:07:02;;;;;;;1.92;1.90;;;;;;;;;;5061181;28;20322;-70
2022/06/28 03:09:49;;;;;;;2.13;2.03;;;;;;;;;;5057675;28;20214;-70
2022/06/28 03:12:35;;;;;;;2.00;1.90;;;;;;;;;;5055814;28;20208;-70
2022/06/28 03:15:22;;;;;;;1.98;1.98;;;;;;;;;;5060416;28;20203;-69
2022/06/28 03:18:09;;;;;;;1.95;1.85;;;;;;;;;;5054401;28;20213;-69
2022/06/28 03:20:58;;;;;;;1.77;1.67;;;;;;;;;;5062667;28;20224;-69
2022/06/28 03:23:45;;;;;;;1.70;1.70;;;;;;;;;;5062506;28;20250;-69
2022/06/28 03:26:32;;;;;;;1.75;1.75;;;;;;;;;;5057663;28;20705;-71
2022/06/28 03:29:19;;;;;;;1.65;1.65;;;;;;;;;;5063601;28;20278;-70
2022/06/28 03:32:06;;;;;;;1.60;1.60;;;;;;;;;;5056803;28;20202;-69
2022/06/28 03:34:54;;;;;;;1.50;1.40;;;;;;;;;;5055688;28;20208;-70
2022/06/28 03:37:42;;;;;;;1.35;1.35;;;;;;;;;;5058554;28;20216;-69
2022/06/28 03:40:29;;;;;;;1.60;1.60;;;;;;;;;;5056503;28;20494;-70
2022/06/28 03:43:16;;;;;;;1.25;1.25;;;;;;;;;;5061305;28;20207;-70
2022/06/28 03:46:03;;;;;;;1.58;1.50;;;;;;;;;;5059206;28;20235;-70
2022/06/28 03:48:50;;;;;;;1.67;1.58;;;;;;;;;;5064830;28;20218;-70
2022/06/28 03:51:37;;;;;;;1.17;1.17;;;;;;;;;;5059832;28;20210;-70
2022/06/28 03:54:26;;;;;;;1.35;1.35;;;;;;;;;;5058198;28;20211;-70
2022/06/28 03:57:13;;;;;;;1.30;1.30;;;;;;;;;;5059124;28;20239;-70
2022/06/28 04:00:01;;;;;;;1.30;1.30;;;;;;;;;;5058445;28;20207;-69
2022/06/28 04:02:48;;;;;;;1.00;1.00;;;;;;;;;;5059567;28;20787;-70
2022/06/28 04:05:35;;;;;;;1.27;1.27;;;;;;;;;;5060150;28;20222;-69
2022/06/28 04:08:22;;;;;;;1.15;1.15;;;;;;;;;;5061287;28;20263;-70
2022/06/28 04:11:17;;;;;;;1.25;1.15;;;;;;;;;;5066667;28;20216;-70
2022/06/28 04:14:04;;;;;;;1.25;1.25;;;;;;;;;;5061688;28;20217;-70
2022/06/28 04:16:51;;;;;;;1.00;1.00;;;;;;;;;;5065166;28;20436;-70
2022/06/28 04:19:39;;;;;;;1.13;1.13;;;;;;;;;;5058616;28;20224;-70
2022/06/28 04:22:25;;;;;;;0.98;0.98;;;;;;;;;;5064261;28;20214;-70
2022/06/28 04:25:12;;;;;;;1.10;1.10;;;;;;;;;;5062754;28;20227;-70
2022/06/28 04:28:01;;;;;;;1.02;1.02;;;;;;;;;;5063264;28;20207;-70
2022/06/28 04:30:48;;;;;;;0.90;0.90;;;;;;;;;;5065283;28;20206;-70
2022/06/28 04:33:36;;;;;;;1.13;1.13;;;;;;;;;;5063471;28;20667;-71
2022/06/28 04:36:26;;;;;;;1.33;1.20;;;;;;;;;;5059762;28;20195;-70
2022/06/28 04:39:13;;;;;;;1.08;1.08;;;;;;;;;;5065726;28;20222;-69
2022/06/28 04:42:02;;;;;;;0.85;0.85;;;;;;;;;;5066481;28;20607;-69
2022/06/28 04:44:50;;;;;;;0.93;0.93;;;;;;;;;;5059170;28;20208;-69
2022/06/28 04:47:37;;;;;;;1.05;1.00;;;;;;;;;;5058298;28;20244;-70
2022/06/28 04:50:24;;;;;;;0.80;0.80;;;;;;;;;;5062482;28;20320;-70
2022/06/28 04:53:11;;;;;;;1.00;1.00;;;;;;;;;;5058598;28;20599;-70
2022/06/28 04:55:58;;;;;;;0.93;0.93;;;;;;;;;;5059121;28;20207;-70
2022/06/28 04:58:45;;;;;;;0.90;0.90;;;;;;;;;;5060375;28;20211;-70
2022/06/28 05:01:33;;;;;;;1.10;1.10;;;;;;;;;;5060357;28;20209;-70
2022/06/28 05:04:20;;;;;;;0.93;0.93;;;;;;;;;;5064884;28;20203;-69
2022/06/28 05:07:07;;;;;;;0.90;0.90;;;;;;;;;;5056457;28;20714;-70
2022/06/28 05:09:54;;;;;;;0.90;0.90;;;;;;;;;;5059464;28;20203;-70
2022/06/28 05:12:41;;;;;;;1.00;1.00;;;;;;;;;;5058186;28;20208;-70
2022/06/28 05:15:28;;;;;;;1.13;1.13;;;;;;;;;;5060923;28;20220;-70
2022/06/28 05:18:16;;;;;;;0.73;0.73;;;;;;;;;;5058645;28;20799;-70
2022/06/28 05:21:03;;;;;;;1.27;1.17;;;;;;;;;;5060794;28;20211;-70
2022/06/28 05:23:51;;;;;;;0.93;0.93;;;;;;;;;;5059577;28;20278;-69
2022/06/28 05:26:38;;;;;;;1.08;0.95;;;;;;;;;;5058198;28;20601;-70
2022/06/28 05:29:25;;;;;;;1.00;0.90;;;;;;;;;;5058197;28;20257;-70
2022/06/28 05:32:12;;;;;;;0.70;0.70;;;;;;;;;;5061676;28;20531;-70
2022/06/28 05:35:00;;;;;;;0.90;0.90;;;;;;;;;;5059221;28;20240;-70
2022/06/28 05:37:47;;;;;;;2.08;0.85;;;;;;;;;;5061994;28;20220;-70
2022/06/28 05:40:34;;;;;;;0.95;0.93;;;;;;;;;;5057365;28;20211;-69
2022/06/28 05:43:21;;;;;;;0.68;0.68;;;;;;;;;;5061524;28;20215;-69
2022/06/28 05:46:08;;;;;;;1.30;1.00;;;;;;;;;;5060785;28;20227;-69
2022/06/28 05:48:56;;;;;;;1.13;1.02;;;;;;;;;;5061030;28;20203;-70
2022/06/28 05:51:44;;;;;;;0.68;0.68;;;;;;;;;;5063786;28;20690;-70
2022/06/28 05:54:31;;;;;;;1.15;1.15;;;;;;;;;;5062740;28;20336;-70
2022/06/28 05:57:18;;;;;;;0.95;0.95;;;;;;;;;;5057766;28;20625;-71
2022/06/28 06:00:07;;;;;;;0.80;0.80;;;;;;;;;;5064593;28;20212;-69
2022/06/28 06:02:54;;;;;;;1.30;1.20;;;;;;;;;;5063427;28;20234;-70
2022/06/28 06:05:41;;;;;;;1.45;1.35;;;;;;;;;;5060043;28;20267;-70
2022/06/28 06:08:29;;;;;;;1.08;0.98;;;;;;;;;;5059569;28;20249;-70
2022/06/28 06:11:16;;;;;;;1.17;1.10;;;;;;;;;;5060622;28;20211;-70
2022/06/28 06:14:03;;;;;;;1.40;1.30;;;;;;;;;;5055312;28;20284;-69
2022/06/28 06:16:50;;;;;;;1.45;1.15;;;;;;;;;;5057650;28;20583;-70
2022/06/28 06:19:37;;;;;;;1.20;1.10;;;;;;;;;;5066250;28;20427;-70
2022/06/28 06:22:24;;;;;;;1.27;1.15;;;;;;;;;;5058327;28;20224;-71
2022/06/28 06:25:13;;;;;;;0.90;0.90;;;;;;;;;;5062593;28;20211;-70
2022/06/28 06:28:00;;;;;;;1.17;1.05;;;;;;;;;;5059468;28;20224;-70
2022/06/28 06:30:47;;;;;;;1.77;1.00;;;;;;;;;;5061320;28;20292;-70
2022/06/28 06:33:33;;;;;;;1.92;1.40;;;;;;;;;;5058683;28;20214;-70
2022/06/28 06:36:21;;;;;;;1.00;1.00;;;;;;;;;;5058772;28;20197;-70
2022/06/28 06:39:09;;;;;;;2.50;1.00;;;;;;;;;;5064393;28;20211;-70
2022/06/28 06:41:57;;;;;;;1.48;1.00;;;;;;;;;;5058791;28;20211;-70
2022/06/28 06:44:44;;;;;;;1.05;1.00;;;;;;;;;;5063105;28;20212;-70
2022/06/28 06:47:31;;;;;;;1.27;1.15;;;;;;;;;;5057260;28;20238;-70
2022/06/28 06:50:19;;;;;;;0.90;0.90;;;;;;;;;;5059194;28;20214;-70
2022/06/28 06:53:07;;;;;;;0.90;0.90;;;;;;;;;;5062216;28;20216;-69
2022/06/28 06:55:53;;;;;;;1.25;1.10;;;;;;;;;;5060534;28;20656;-70
2022/06/28 06:58:42;;;;;;;1.20;1.10;;;;;;;;;;5053319;28;20208;-70
2022/06/28 07:01:32;;;;;;;1.60;1.25;;;;;;;;;;5057341;28;20207;-70
2022/06/28 07:04:20;;;;;;;1.10;1.00;;;;;;;;;;5056825;28;20214;-70
2022/06/28 07:07:07;;;;;;;1.50;1.40;;;;;;;;;;5056055;28;21027;-70
2022/06/28 07:09:55;;;;;;;1.13;1.02;;;;;;;;;;5061224;28;20206;-70
2022/06/28 07:12:42;;;;;;;1.15;1.10;;;;;;;;;;5060270;28;20213;-70
2022/06/28 07:15:30;;;;;;;1.35;1.25;;;;;;;;;;5060699;28;20267;-70
2022/06/28 07:18:17;;;;;;;1.35;1.20;;;;;;;;;;5055453;28;20207;-69
2022/06/28 07:21:04;;;;;;;1.30;1.20;;;;;;;;;;5060872;28;20576;-69
2022/06/28 07:23:51;;;;;;;1.30;1.20;;;;;;;;;;5057994;28;20726;-70
2022/06/28 07:26:38;;;;;;;1.20;1.10;;;;;;;;;;5053281;28;20233;-70
2022/06/28 07:29:25;;;;;;;1.20;1.02;;;;;;;;;;5057172;28;20278;-69
2022/06/28 07:32:14;;;;;;;1.38;1.20;;;;;;;;;;5054835;28;20200;-70
2022/06/28 07:35:01;;;;;;;1.13;1.02;;;;;;;;;;5057942;28;20238;-70
2022/06/28 07:37:48;;;;;;;1.30;1.20;;;;;;;;;;5063105;28;20207;-70
2022/06/28 07:40:35;;;;;;;1.20;1.20;;;;;;;;;;5058751;28;20206;-70
2022/06/28 07:43:22;;;;;;;1.25;1.20;;;;;;;;;;5053472;28;20285;-70
2022/06/28 07:46:09;;;;;;;1.38;1.27;;;;;;;;;;5056758;28;20338;-70
2022/06/28 07:48:57;;;;;;;2.35;1.25;;;;;;;;;;5058134;28;20655;-70
2022/06/28 07:54:48;;;;;;;1.38;1.27;;;;;;;;;;5059577;28;20211;-70
2022/06/28 07:57:36;;;;;;;2.25;1.50;;;;;;;;;;5050353;28;20228;-70
2022/06/28 08:00:23;;;;;;;0.90;0.90;;;;;;;;;;5058793;28;20196;-69
2022/06/28 08:03:11;;;;;;;1.40;1.27;;;;;;;;;;5057965;28;20241;-70
2022/06/28 08:05:59;;;;;;;1.00;1.00;;;;;;;;;;5053393;28;20287;-70
2022/06/28 08:08:46;;;;;;;1.40;1.30;;;;;;;;;;5055905;28;20245;-70
2022/06/28 08:11:34;;;;;;;1.35;1.13;;;;;;;;;;5053936;28;20320;-70
2022/06/28 08:14:21;;;;;;;1.63;1.52;;;;;;;;;;5056784;28;20210;-70
2022/06/28 08:17:08;;;;;;;1.30;1.08;;;;;;;;;;5053245;28;20680;-70
2022/06/28 08:19:55;;;;;;;2.00;1.60;;;;;;;;;;5057277;28;20774;-70
2022/06/28 08:22:43;;;;;;;1.00;1.00;;;;;;;;;;5055620;28;20212;-68
2022/06/28 08:25:30;;;;;;;0.98;0.98;;;;;;;;;;5060932;28;20702;-69
2022/06/28 08:28:17;;;;;;;2.40;1.20;;;;;;;;;;5058313;28;20233;-71
2022/06/28 08:31:04;;;;;;;1.50;1.40;;;;;;;;;;5052464;28;20200;-70
2022/06/28 08:33:51;;;;;;;1.52;1.00;;;;;;;;;;5063449;28;20228;-70
2022/06/28 08:36:38;;;;;;;1.15;1.10;;;;;;;;;;5053562;28;20223;-69
2022/06/28 08:39:27;;;;;;;1.35;1.20;;;;;;;;;;5062847;28;20573;-70
2022/06/28 08:42:17;;;;;;;1.08;1.05;;;;;;;;;;5058868;28;20224;-70
2022/06/28 08:45:05;;;;;;;1.27;1.27;;;;;;;;;;5059126;28;20319;-69
2022/06/28 08:47:53;;;;;;;1.63;1.27;;;;;;;;;;5059966;28;20705;-69
2022/06/28 08:50:41;;;;;;;1.40;1.30;;;;;;;;;;5060046;28;20215;-70
2022/06/28 08:53:30;;;;;;;1.08;1.08;;;;;;;;;;5061207;28;20210;-71
2022/06/28 08:56:18;;;;;;;1.33;1.23;;;;;;;;;;5060727;28;20206;-70
2022/06/28 08:59:07;;;;;;;1.42;1.33;;;;;;;;;;5063156;28;20204;-70
2022/06/28 09:01:54;;;;;;;1.75;1.48;;;;;;;;;;5059927;28;20665;-70
2022/06/28 09:04:45;;;;;;;1.42;1.25;;;;;;;;;;5062916;28;20200;-70
2022/06/28 09:07:32;;;;;;;1.60;1.30;;;;;;;;;;5065519;28;20258;-70
2022/06/28 09:10:19;;;;;;;1.30;1.17;;;;;;;;;;5058956;28;20204;-70
2022/06/28 09:13:10;;;;;;;1.60;1.50;;;;;;;;;;5062566;28;20221;-69
2022/06/28 09:16:00;;;;;;;1.42;1.30;;;;;;;;;;5061121;28;20305;-70
2022/06/28 09:18:48;;;;;;;1.58;1.15;;;;;;;;;;5058948;28;20203;-70
2022/06/28 09:21:42;;;;;;;1.38;1.27;;;;;;;;;;5065334;28;20214;-70
2022/06/28 09:24:29;;;;;;;0.95;0.95;;;;;;;;;;5056979;28;20210;-70
2022/06/28 09:27:28;;;;;;;1.60;1.50;;;;;;;;;;5060214;28;20590;-70
2022/06/28 09:30:16;;;;;;;1.42;1.17;;;;;;;;;;5067485;28;20207;-70
2022/06/28 09:33:03;;;;;;;1.80;1.27;;;;;;;;;;5060842;28;20204;-69
2022/06/28 09:35:52;;;;;;;1.10;1.00;;;;;;;;;;5059203;28;20195;-70
2022/06/28 09:38:39;;;;;;;1.50;1.40;;;;;;;;;;5062937;28;20212;-70
2022/06/28 09:41:29;;;;;;;1.67;1.33;;;;;;;;;;5061895;28;20216;-70
2022/06/28 09:44:17;;;;;;;1.20;1.20;;;;;;;;;;5063996;28;20640;-70
2022/06/28 09:47:07;;;;;;;1.17;1.17;;;;;;;;;;5060163;28;20680;-70
2022/06/28 09:49:54;;;;;;;1.75;1.17;;;;;;;;;;5055123;28;20212;-70
2022/06/28 09:52:45;;;;;;;1.40;1.30;;;;;;;;;;5060766;28;20211;-70
2022/06/28 09:55:33;;;;;;;1.00;0.98;;;;;;;;;;5061809;28;20283;-70
2022/06/28 09:58:22;;;;;;;1.70;1.30;;;;;;;;;;5058139;28;20222;-70
2022/06/28 10:01:09;;;;;;;1.42;1.30;;;;;;;;;;5059629;28;20195;-70
2022/06/28 10:03:58;;;;;;;1.58;1.40;;;;;;;;;;5062772;28;20276;-70
2022/06/28 10:06:45;;;;;;;1.30;1.20;;;;;;;;;;5061605;28;20219;-70
2022/06/28 10:09:32;;;;;;;1.25;1.20;;;;;;;;;;5057201;28;20203;-70
2022/06/28 10:15:27;;;;;;;1.45;1.33;;;;;;;;;;5058710;28;20215;-69
2022/06/28 10:18:19;;;;;;;1.33;1.20;;;;;;;;;;5060096;28;20200;-70
2022/06/28 10:21:08;;;;;;;1.30;1.17;;;;;;;;;;5064110;28;20202;-70
2022/06/28 10:23:55;;;;;;;1.88;1.20;;;;;;;;;;5064708;28;20884;-70
2022/06/28 10:26:46;;;;;;;1.30;1.20;;;;;;;;;;5063166;28;20207;-71
2022/06/28 10:29:33;;;;;;;1.42;1.27;;;;;;;;;;5061669;28;20625;-70
2022/06/28 10:32:41;;;;;;;1.38;1.27;;;;;;;;;;5061391;28;20214;-70
2022/06/28 10:35:55;;;;;;;1.10;1.08;;;;;;;;;;5058301;28;20214;-70
2022/06/28 10:39:12;;;;;;;1.23;1.23;;;;;;;;;;5059870;28;20294;-70
2022/06/28 10:42:08;;;;;;;0.98;0.98;;;;;;;;;;5066057;28;20214;-70
2022/06/28 10:44:55;;;;;;;1.55;1.45;;;;;;;;;;5059103;28;20362;-70
2022/06/28 10:48:09;;;;;;;1.40;1.15;;;;;;;;;;5060258;28;20227;-71
2022/06/28 10:50:57;;;;;;;1.02;1.02;;;;;;;;;;5060223;28;20219;-70
2022/06/28 10:54:01;;;;;;;1.38;1.27;;;;;;;;;;5057059;28;20199;-70
2022/06/28 10:56:50;;;;;;;0.93;0.90;;;;;;;;;;5055445;28;20207;-70
2022/06/28 10:59:39;;;;;;;1.15;1.10;;;;;;;;;;5057054;28;20283;-70
2022/06/28 11:02:46;;;;;;;1.20;1.20;;;;;;;;;;5063258;28;20223;-70
2022/06/28 11:05:50;;;;;;;1.20;1.10;;;;;;;;;;5060195;28;20586;-70
2022/06/28 11:08:46;;;;;;;1.15;1.08;;;;;;;;;;5051356;28;20235;-70
2022/06/28 11:11:34;;;;;;;1.15;1.05;;;;;;;;;;5059719;28;20208;-70
2022/06/28 11:14:33;;;;;;;1.40;1.30;;;;;;;;;;5057633;28;20211;-70
2022/06/28 11:17:22;;;;;;;1.05;1.05;;;;;;;;;;5057110;28;20195;-70
2022/06/28 11:20:11;;;;;;;1.20;1.10;;;;;;;;;;5063205;28;20207;-70
2022/06/28 11:22:58;;;;;;;1.20;1.08;;;;;;;;;;5053758;28;20656;-69
2022/06/28 11:28:53;;;;;;;1.42;1.33;;;;;;;;;;5053999;28;20701;-70
2022/06/28 11:31:43;;;;;;;1.08;1.00;;;;;;;;;;5062238;28;20207;-70
2022/06/28 11:34:30;;;;;;;1.27;1.00;;;;;;;;;;5055764;28;20204;-69
2022/06/28 11:37:17;;;;;;;1.05;1.05;;;;;;;;;;5056523;28;20199;-70
2022/06/28 11:40:05;;;;;;;1.40;1.27;;;;;;;;;;5055645;28;20288;-69
2022/06/28 11:43:01;;;;;;;1.00;1.00;;;;;;;;;;5053113;28;20293;-70
2022/06/28 11:45:50;;;;;;;1.45;1.35;;;;;;;;;;5060878;28;20248;-70
2022/06/28 11:48:38;;;;;;;1.40;1.30;;;;;;;;;;5054859;28;20231;-70
2022/06/28 11:51:29;;;;;;;0.95;0.95;;;;;;;;;;5061831;28;20226;-70
2022/06/28 11:54:18;;;;;;;1.15;1.00;;;;;;;;;;5059296;28;20211;-71
2022/06/28 11:57:14;;;;;;;1.52;1.20;;;;;;;;;;5062731;28;20203;-70
2022/06/28 12:00:03;;;;;;;0.90;0.90;;;;;;;;;;5058104;28;20290;-70
2022/06/28 12:02:52;;;;;;;1.33;1.23;;;;;;;;;;5059938;28;20737;-70
2022/06/28 12:05:41;;;;;;;1.17;1.08;;;;;;;;;;5061607;28;20218;-69
2022/06/28 12:08:45;;;;;;;1.10;1.10;;;;;;;;;;5061505;28;20239;-70
2022/06/28 12:11:35;;;;;;;1.17;1.08;;;;;;;;;;5059663;28;20211;-70
2022/06/28 12:14:23;;;;;;;1.75;1.20;;;;;;;;;;5058357;28;20655;-70
2022/06/28 12:17:10;;;;;;;0.93;0.93;;;;;;;;;;5063557;28;20219;-70
2022/06/28 12:20:08;;;;;;;1.17;0.75;;;;;;;;;;5056609;28;20239;-70
2022/06/28 12:23:01;;;;;;;1.02;1.02;;;;;;;;;;5057245;28;20297;-70
2022/06/28 12:25:58;;;;;;;0.93;0.93;;;;;;;;;;5053445;28;20201;-70
2022/06/28 12:28:45;;;;;;;0.90;0.90;;;;;;;;;;5058923;28;20231;-70
2022/06/28 12:31:32;;;;;;;0.98;0.98;;;;;;;;;;5066079;28;20574;-70
2022/06/28 12:34:19;;;;;;;1.70;1.35;;;;;;;;;;5064890;28;20207;-69
2022/06/28 12:37:07;;;;;;;0.82;0.82;;;;;;;;;;5063975;28;20612;-71
2022/06/28 12:39:56;;;;;;;1.02;0.95;;;;;;;;;;5065728;28;20253;-70
2022/06/28 12:42:43;;;;;;;1.15;1.05;;;;;;;;;;5058376;28;20317;-70
2022/06/28 12:45:30;;;;;;;1.10;1.02;;;;;;;;;;5060228;28;20236;-70
2022/06/28 12:48:17;;;;;;;1.20;1.10;;;;;;;;;;5062704;28;20223;-70
2022/06/28 12:51:04;;;;;;;1.13;1.10;;;;;;;;;;5062166;28;20207;-70
2022/06/28 12:53:51;;;;;;;0.88;0.88;;;;;;;;;;5057516;28;20219;-70
2022/06/28 12:56:40;;;;;;;0.95;0.95;;;;;;;;;;5061017;28;20793;-70
2022/06/28 12:59:26;;;;;;;0.90;0.90;;;;;;;;;;5058659;28;20208;-70
2022/06/28 13:02:13;;;;;;;1.23;0.95;;;;;;;;;;5062326;28;20231;-70
2022/06/28 13:05:00;;;;;;;0.95;0.95;;;;;;;;;;5063199;28;20211;-69
2022/06/28 13:07:47;;;;;;;0.98;0.90;;;;;;;;;;5055819;28;20597;-70
2022/06/28 13:10:36;;;;;;;1.02;1.00;;;;;;;;;;5060933;28;20208;-70
2022/06/28 13:13:24;;;;;;;0.70;0.70;;;;;;;;;;5058827;28;20254;-70
2022/06/28 13:16:11;;;;;;;1.20;0.90;;;;;;;;;;5063867;28;20215;-70
2022/06/28 13:18:58;;;;;;;0.80;0.80;;;;;;;;;;5058769;28;20208;-70
2022/06/28 13:21:47;;;;;;;1.08;1.00;;;;;;;;;;5064409;28;20214;-70
2022/06/28 13:24:35;;;;;;;1.00;1.00;;;;;;;;;;5059990;28;20208;-70
2022/06/28 13:27:22;;;;;;;0.90;0.90;;;;;;;;;;5057089;28;20239;-70
2022/06/28 13:30:12;;;;;;;0.60;0.60;;;;;;;;;;5065068;28;20305;-70
2022/06/28 13:32:59;;;;;;;0.85;0.82;;;;;;;;;;5060362;28;20200;-70
2022/06/28 13:35:48;;;;;;;0.93;0.93;;;;;;;;;;5065866;28;20643;-71
2022/06/28 13:38:35;;;;;;;0.80;0.80;;;;;;;;;;5060878;28;20200;-70
2022/06/28 13:41:22;;;;;;;0.82;0.77;;;;;;;;;;5061375;28;20293;-70
2022/06/28 13:44:11;;;;;;;1.00;1.00;;;;;;;;;;5062362;28;20206;-70
2022/06/28 13:47:00;;;;;;;0.95;0.93;;;;;;;;;;5063362;28;20204;-70
2022/06/28 13:49:47;;;;;;;0.60;0.60;;;;;;;;;;5063726;28;20593;-70
2022/06/28 13:52:34;;;;;;;0.80;0.80;;;;;;;;;;5056171;28;20281;-69
2022/06/28 13:55:23;;;;;;;0.60;0.60;;;;;;;;;;5059115;28;20215;-70
2022/06/28 13:58:10;;;;;;;1.00;1.00;;;;;;;;;;5057284;28;20204;-70
2022/06/28 14:00:58;;;;;;;0.73;0.73;;;;;;;;;;5061448;28;20338;-70
2022/06/28 14:03:47;;;;;;;0.85;0.82;;;;;;;;;;5062988;28;20227;-70
2022/06/28 14:06:33;;;;;;;0.82;0.82;;;;;;;;;;5057688;28;20204;-70
2022/06/28 14:09:21;;;;;;;0.80;0.80;;;;;;;;;;5061017;28;20231;-70
2022/06/28 14:12:09;;;;;;;1.20;1.20;;;;;;;;;;5058210;28;20226;-70
2022/06/28 14:14:56;;;;;;;0.80;0.80;;;;;;;;;;5057883;28;20282;-70
2022/06/28 14:17:43;;;;;;;0.80;0.80;;;;;;;;;;5058163;28;20290;-70
2022/06/28 14:20:31;;;;;;;1.55;1.05;;;;;;;;;;5059100;28;20215;-70
2022/06/28 14:23:18;;;;;;;1.40;0.80;;;;;;;;;;5064791;28;20234;-70
2022/06/28 14:26:06;;;;;;;0.70;0.70;;;;;;;;;;5056228;28;20235;-70
2022/06/28 14:28:56;;;;;;;0.68;0.68;;;;;;;;;;5060970;28;20223;-70
2022/06/28 14:31:43;;;;;;;0.70;0.70;;;;;;;;;;5060225;28;20211;-70
2022/06/28 14:34:30;;;;;;;1.30;1.20;;;;;;;;;;5060046;28;20218;-70
2022/06/28 14:37:19;;;;;;;1.02;1.00;;;;;;;;;;5064603;28;20215;-70
2022/06/28 14:40:07;;;;;;;0.90;0.90;;;;;;;;;;5059513;28;20235;-70
2022/06/28 14:42:54;;;;;;;0.55;0.55;;;;;;;;;;5063618;28;20216;-70
2022/06/28 14:45:41;;;;;;;0.90;0.90;;;;;;;;;;5059361;28;20203;-70
2022/06/28 14:48:28;;;;;;;0.82;0.82;;;;;;;;;;5062322;28;20204;-70
2022/06/28 14:51:15;;;;;;;0.88;0.85;;;;;;;;;;5058044;28;20208;-69
2022/06/28 14:54:04;;;;;;;0.90;0.82;;;;;;;;;;5060134;28;20289;-70
2022/06/28 14:56:51;;;;;;;0.82;0.82;;;;;;;;;;5056055;28;20223;-70
2022/06/28 14:59:38;;;;;;;0.75;0.75;;;;;;;;;;5058283;28;20211;-69
2022/06/28 15:02:25;;;;;;;0.73;0.73;;;;;;;;;;5060646;28;20266;-70
2022/06/28 15:05:12;;;;;;;0.85;0.80;;;;;;;;;;5061528;28;20199;-69
2022/06/28 15:07:59;;;;;;;1.00;1.00;;;;;;;;;;5054063;28;20768;-70
2022/06/28 15:10:48;;;;;;;0.95;0.95;;;;;;;;;;5061017;28;20207;-70
2022/06/28 15:13:34;;;;;;;0.70;0.70;;;;;;;;;;5057434;28;20256;-69
2022/06/28 15:16:22;;;;;;;0.85;0.85;;;;;;;;;;5060746;28;20256;-70
2022/06/28 15:19:09;;;;;;;0.70;0.70;;;;;;;;;;5055825;28;20549;-70
2022/06/28 15:31:10;;;;;;;0.63;0.63;;;;;;;;;;5055889;28;20211;-70
2022/06/28 15:33:57;;;;;;;0.98;0.70;;;;;;;;;;5063278;28;20199;-70
2022/06/28 15:36:44;;;;;;;0.80;0.80;;;;;;;;;;5059066;28;20219;-70
2022/06/28 15:39:32;;;;;;;0.70;0.70;;;;;;;;;;5057275;28;20239;-70
2022/06/28 15:42:19;;;;;;;0.73;0.73;;;;;;;;;;5054513;28;20272;-70
2022/06/28 15:45:08;;;;;;;0.68;0.68;;;;;;;;;;5058118;28;20357;-70
2022/06/28 15:47:55;;;;;;;0.95;0.90;;;;;;;;;;5056912;28;20691;-70
2022/06/28 15:50:43;;;;;;;0.82;0.82;;;;;;;;;;5058776;28;20223;-70
2022/06/28 15:53:30;;;;;;;0.57;0.57;;;;;;;;;;5056947;28;20214;-71
2022/06/28 15:56:17;;;;;;;0.82;0.82;;;;;;;;;;5060313;28;20208;-70
2022/06/28 15:59:04;;;;;;;1.13;1.05;;;;;;;;;;5060246;28;20200;-70
2022/06/28 16:01:52;;;;;;;0.70;0.70;;;;;;;;;;5056452;28;20303;-69
2022/06/28 16:04:39;;;;;;;0.70;0.70;;;;;;;;;;5057431;28;20211;-70
2022/06/28 16:07:26;;;;;;;0.68;0.68;;;;;;;;;;5060986;28;20246;-70
2022/06/28 16:10:14;;;;;;;0.95;0.90;;;;;;;;;;5064985;28;20730;-69
2022/06/28 16:13:02;;;;;;;0.52;0.52;;;;;;;;;;5059810;28;20199;-70
2022/06/28 16:15:49;;;;;;;0.57;0.57;;;;;;;;;;5050196;28;20207;-70
2022/06/28 16:18:38;;;;;;;1.30;0.80;;;;;;;;;;5056529;28;20210;-69
2022/06/28 16:21:25;;;;;;;0.80;0.80;;;;;;;;;;5062230;28;20215;-69
2022/06/28 16:24:12;;;;;;;1.00;0.90;;;;;;;;;;5057578;28;20223;-70
2022/06/28 16:26:59;;;;;;;0.85;0.85;;;;;;;;;;5058476;28;20203;-70
2022/06/28 16:29:46;;;;;;;0.60;0.60;;;;;;;;;;5054546;28;20574;-70
2022/06/28 16:32:32;;;;;;;0.80;0.80;;;;;;;;;;5057898;28;20210;-70
2022/06/28 16:35:24;;;;;;;0.63;0.63;;;;;;;;;;5061192;28;20199;-70
2022/06/28 16:38:11;;;;;;;1.38;0.85;;;;;;;;;;5057356;28;20581;-70
2022/06/28 16:40:58;;;;;;;0.80;0.80;;;;;;;;;;5056632;28;20218;-70
2022/06/28 16:43:45;;;;;;;0.55;0.55;;;;;;;;;;5051636;28;20757;-70
2022/06/28 16:46:32;;;;;;;0.80;0.80;;;;;;;;;;5054182;28;20213;-71
2022/06/28 16:49:19;;;;;;;0.73;0.73;;;;;;;;;;5059752;28;20547;-70
2022/06/28 16:52:08;;;;;;;1.10;0.90;;;;;;;;;;5061286;28;20195;-71
2022/06/28 16:54:55;;;;;;;0.70;0.65;;;;;;;;;;5061131;28;20213;-70
2022/06/28 16:57:42;;;;;;;1.00;1.00;;;;;;;;;;5056081;28;20222;-71
2022/06/28 17:00:29;;;;;;;0.73;0.70;;;;;;;;;;5057072;28;20352;-70
2022/06/28 17:03:16;;;;;;;1.02;0.80;;;;;;;;;;5056978;28;20235;-70
2022/06/28 17:06:03;;;;;;;0.80;0.80;;;;;;;;;;5057412;28;20211;-70
2022/06/28 17:08:52;;;;;;;0.75;0.75;;;;;;;;;;5060608;28;20243;-71
2022/06/28 17:11:39;;;;;;;0.80;0.80;;;;;;;;;;5058258;28;20262;-70
2022/06/28 17:14:26;;;;;;;0.80;0.80;;;;;;;;;;5055130;28;20289;-70